TimeCDT,TemperatureF,Dew PointF,Humidity,Sea Level PressureIn,VisibilityMPH,Wind Direction,Wind SpeedMPH,Gust SpeedMPH,PrecipitationIn,Events,Conditions,WindDirDegrees,DateUTC
12:53 AM,46.0,28.9,51,30.30,10.0,NNE,13.8,-,N/A,,Clear,20,2012-10-27 05:53:00
1:53 AM,45.0,30.0,56,30.29,10.0,NNE,11.5,-,N/A,,Clear,20,2012-10-27 06:53:00
2:53 AM,44.1,30.9,60,30.28,10.0,North,10.4,-,N/A,,Clear,10,2012-10-27 07:53:00
3:53 AM,43.0,30.9,62,30.27,10.0,North,10.4,-,N/A,,Clear,360,2012-10-27 08:53:00
4:53 AM,42.1,30.9,65,30.27,10.0,North,10.4,-,N/A,,Clear,360,2012-10-27 09:53:00
5:53 AM,39.9,32.0,73,30.28,10.0,NNW,9.2,-,N/A,,Clear,340,2012-10-27 10:53:00
6:53 AM,39.0,30.9,73,30.29,10.0,NNW,12.7,-,N/A,,Clear,340,2012-10-27 11:53:00
7:53 AM,39.0,30.9,73,30.30,10.0,North,9.2,-,N/A,,Clear,350,2012-10-27 12:53:00
8:53 AM,42.1,32.0,67,30.33,10.0,North,10.4,-,N/A,,Clear,350,2012-10-27 13:53:00
9:53 AM,46.0,32.0,58,30.34,10.0,NNE,13.8,-,N/A,,Clear,20,2012-10-27 14:53:00
10:53 AM,48.0,32.0,54,30.33,10.0,North,10.4,-,N/A,,Clear,10,2012-10-27 15:53:00
11:53 AM,51.1,32.0,48,30.32,10.0,NNE,5.8,-,N/A,,Clear,30,2012-10-27 16:53:00
12:53 PM,52.0,30.9,45,30.28,10.0,North,4.6,16.1,N/A,,Clear,350,2012-10-27 17:53:00
1:53 PM,55.9,30.0,37,30.23,10.0,NNE,10.4,-,N/A,,Clear,20,2012-10-27 18:53:00
2:53 PM,57.0,27.0,32,30.19,10.0,North,11.5,-,N/A,,Partly Cloudy,360,2012-10-27 19:53:00
3:53 PM,57.9,27.0,31,30.17,10.0,North,8.1,-,N/A,,Partly Cloudy,10,2012-10-27 20:53:00
4:53 PM,57.2,26.6,31,30.17,10.0,North,11.5,-,N/A,,Partly Cloudy,360,2012-10-27 21:53:00
5:53 PM,57.0,21.9,26,30.16,10.0,North,9.2,-,N/A,,Partly Cloudy,350,2012-10-27 22:53:00
6:53 PM,52.0,23.0,32,30.17,10.0,North,8.1,-,N/A,,Partly Cloudy,360,2012-10-27 23:53:00
7:53 PM,50.0,24.1,36,30.19,10.0,NNE,3.5,-,N/A,,Partly Cloudy,20,2012-10-28 00:53:00
8:53 PM,48.0,25.0,41,30.20,10.0,NNE,4.6,-,N/A,,Clear,20,2012-10-28 01:53:00
9:53 PM,48.9,26.1,41,30.20,10.0,North,5.8,-,N/A,,Clear,360,2012-10-28 02:53:00
10:53 PM,48.2,28.4,46,30.22,10.0,NNW,5.8,-,N/A,,Clear,330,2012-10-28 03:53:00
11:53 PM,45.0,30.9,58,30.23,10.0,NNW,6.9,-,N/A,,Clear,340,2012-10-28 04:53:00